OERK/RUH METAR and TAF weather

Enter ICAO airport designator
Station Type Date Time Source
OERK METAR 2020/09/19 04:00 UTC NOAA

OERK 190400Z 32003KT CAVOK 27/07 Q1012 NOSIG


Station Type Date Time Source
OERK Decoded METAR 2020/09/19 04:00 UTC NOAA

King Khaled International Airport, Saudi Arabia (OERK) 24-56N 046-43E 612M
Sep 19, 2020 - 12:00 AM EDT / 2020.09.19 0400 UTC
Wind: from the NW (320 degrees) at 3 MPH (3 KT):0
Visibility: greater than 7 mile(s):0
Temperature: 80 F (27 C)
Dew Point: 44 F (7 C)
Relative Humidity: 28%
Pressure (altimeter): 29.88 in. Hg (1012 hPa)
ob: OERK 190400Z 32003KT CAVOK 27/07 Q1012 NOSIG
cycle: 4

Station Type Date Time Source
OERK TAF 2020/09/18 18:06 UTC NOAA

TAF OERK 181700Z 1818/1924 35006KT CAVOK
BECMG 1906/1908 03015KT 8000 NSC
TEMPO 1906/1916 4000 BLDU

Example: see airport list